Time;durP1;ratioP1;P1;durP2;ratioP2;P2;SDS_P1;SDS_P2;PMS_P1;PMS_P2;Temp;Humidity;BMP_temperature;BMP_pressure;BME280_temperature;BME280_humidity;BME280_pressure;Samples;Min_cycle;Max_cycle;Signal;HPM_P1;HPM_P2
2023/05/20 00:02:06;;;;;;;0.2;0;;;;;;;;;;;;;-68
2023/05/20 00:04:09;;;;;;;;;;;;;;;13.07;56.46973;102715.5;;;;-68
2023/05/20 00:09:06;;;;;;;;;;;;;;;13.02;57.14551;102713.6;;;;-68
2023/05/20 00:14:06;;;;;;;;;;;;;;;12.98;56.86133;102711.3;;;;-69
2023/05/20 00:19:06;;;;;;;;;;;;;;;12.97;57.19629;102711.1;;;;-69
2023/05/20 00:24:06;;;;;;;;;;;;;;;12.92;56.88672;102712.3;;;;-69
2023/05/20 00:29:06;;;;;;;;;;;;;;;12.91;57.16504;102716.4;;;;-69
2023/05/20 00:32:07;;;;;;;0.2;0.1;;;;;;;;;;;;;-67
2023/05/20 00:34:06;;;;;;;;;;;;;;;12.85;56.78711;102713.4;;;;-67
2023/05/20 00:39:06;;;;;;;;;;;;;;;12.85;57.05664;102714.9;;;;-68
2023/05/20 00:44:06;;;;;;;;;;;;;;;12.76;57.06641;102711.3;;;;-67
2023/05/20 00:49:08;;;;;;;;;;;;;;;12.75;56.81934;102709.3;;;;-68
2023/05/20 00:54:08;;;;;;;;;;;;;;;12.7;57.08203;102709.4;;;;-71
2023/05/20 00:59:06;;;;;;;;;;;;;;;12.65;57.16406;102703.3;;;;-68
2023/05/20 01:02:11;;;;;;;0.2;0.1;;;;;;;;;;;;;-69
2023/05/20 01:04:07;;;;;;;;;;;;;;;12.64;56.88477;102695.8;;;;-68
2023/05/20 01:09:06;;;;;;;;;;;;;;;12.57;56.76367;102695.2;;;;-69
2023/05/20 01:14:09;;;;;;;;;;;;;;;12.54;56.69141;102694.2;;;;-69
2023/05/20 01:19:11;;;;;;;;;;;;;;;12.47;56.80664;102689;;;;-67
2023/05/20 01:24:06;;;;;;;;;;;;;;;12.41;57.01074;102689.7;;;;-68
2023/05/20 01:29:06;;;;;;;;;;;;;;;12.36;56.5127;102685.2;;;;-70
2023/05/20 01:32:13;;;;;;;0.2;0.1;;;;;;;;;;;;;-69
2023/05/20 01:34:06;;;;;;;;;;;;;;;12.36;56.44434;102684.4;;;;-68
2023/05/20 01:39:06;;;;;;;;;;;;;;;12.29;56.39063;102682.7;;;;-68
2023/05/20 01:44:06;;;;;;;;;;;;;;;12.24;56.33887;102684.7;;;;-68
2023/05/20 01:49:06;;;;;;;;;;;;;;;12.21;56.70508;102682.5;;;;-70
2023/05/20 01:54:06;;;;;;;;;;;;;;;12.19;56.85938;102675.3;;;;-68
2023/05/20 01:59:08;;;;;;;;;;;;;;;12.14;56.71875;102671;;;;-68
2023/05/20 02:02:12;;;;;;;0.2;0.1;;;;;;;;;;;;;-67
2023/05/20 02:04:06;;;;;;;;;;;;;;;12.09;56.63477;102671.2;;;;-70
2023/05/20 02:09:06;;;;;;;;;;;;;;;12.05;56.66113;102669.6;;;;-69
2023/05/20 02:14:09;;;;;;;;;;;;;;;12.05;56.52832;102664.8;;;;-68
2023/05/20 02:19:11;;;;;;;;;;;;;;;12.04;56.38184;102662.4;;;;-68
2023/05/20 02:24:06;;;;;;;;;;;;;;;12.01;56.39941;102663;;;;-69
2023/05/20 02:29:06;;;;;;;;;;;;;;;11.97;56.2041;102661.7;;;;-70
2023/05/20 02:32:13;;;;;;;0.2;0.1;;;;;;;;;;;;;-69
2023/05/20 02:34:06;;;;;;;;;;;;;;;11.93;56.71289;102669.8;;;;-67
2023/05/20 02:39:09;;;;;;;;;;;;;;;11.89;56.24902;102666.6;;;;-69
2023/05/20 02:44:06;;;;;;;;;;;;;;;11.84;56.34473;102665.9;;;;-68
2023/05/20 02:49:06;;;;;;;;;;;;;;;11.81;56.64258;102664.4;;;;-67
2023/05/20 02:54:06;;;;;;;;;;;;;;;11.75;56.60156;102658.7;;;;-67
2023/05/20 02:59:07;;;;;;;;;;;;;;;11.71;56.61816;102660.5;;;;-68
2023/05/20 03:02:14;;;;;;;0.2;0.1;;;;;;;;;;;;;-68
2023/05/20 03:04:06;;;;;;;;;;;;;;;11.62;56.5498;102659.4;;;;-67
2023/05/20 03:09:06;;;;;;;;;;;;;;;11.57;56.86816;102655.1;;;;-68
2023/05/20 03:14:06;;;;;;;;;;;;;;;11.51;56.45703;102655;;;;-68
2023/05/20 03:19:06;;;;;;;;;;;;;;;11.45;56.49414;102650.8;;;;-70
2023/05/20 03:24:06;;;;;;;;;;;;;;;11.37;56.94238;102649.1;;;;-67
2023/05/20 03:29:08;;;;;;;;;;;;;;;11.4;56.63379;102653.2;;;;-68
2023/05/20 03:32:16;;;;;;;0.2;0.1;;;;;;;;;;;;;-69
2023/05/20 03:34:06;;;;;;;;;;;;;;;11.3;56.81055;102651.5;;;;-68
2023/05/20 03:39:06;;;;;;;;;;;;;;;11.25;56.52539;102652;;;;-68
2023/05/20 03:44:06;;;;;;;;;;;;;;;11.22;56.69922;102649.8;;;;-68
2023/05/20 03:49:06;;;;;;;;;;;;;;;11.15;56.78027;102650.6;;;;-68
2023/05/20 03:54:06;;;;;;;;;;;;;;;11.1;56.78418;102655.7;;;;-66
2023/05/20 03:59:06;;;;;;;;;;;;;;;11.08;57.01563;102652.4;;;;-68
2023/05/20 04:02:17;;;;;;;0.2;0.1;;;;;;;;;;;;;-68
2023/05/20 04:04:06;;;;;;;;;;;;;;;11.03;57.16504;102651.9;;;;-68
2023/05/20 04:09:07;;;;;;;;;;;;;;;11.02;57.08594;102654.3;;;;-68
2023/05/20 04:14:06;;;;;;;;;;;;;;;10.96;56.90039;102652.4;;;;-68
2023/05/20 04:19:06;;;;;;;;;;;;;;;10.99;57.07031;102651.6;;;;-67
2023/05/20 04:24:06;;;;;;;;;;;;;;;10.94;56.83008;102647.8;;;;-68
2023/05/20 04:29:06;;;;;;;;;;;;;;;10.95;56.91016;102649.8;;;;-67
2023/05/20 04:32:20;;;;;;;0.2;0.1;;;;;;;;;;;;;-67
2023/05/20 04:34:06;;;;;;;;;;;;;;;10.92;56.9502;102649.2;;;;-67
2023/05/20 04:39:06;;;;;;;;;;;;;;;10.94;57.08594;102650.1;;;;-67
2023/05/20 04:44:06;;;;;;;;;;;;;;;10.94;57.29785;102651;;;;-67
2023/05/20 04:49:07;;;;;;;;;;;;;;;10.97;56.96875;102652.2;;;;-68
2023/05/20 04:54:06;;;;;;;;;;;;;;;11.02;57.20996;102650.8;;;;-69
2023/05/20 04:59:06;;;;;;;;;;;;;;;11.08;57.42871;102650;;;;-66
2023/05/20 05:02:19;;;;;;;0.2;0.1;;;;;;;;;;;;;-67
2023/05/20 05:04:06;;;;;;;;;;;;;;;11.14;57.65918;102651.4;;;;-68
2023/05/20 05:09:06;;;;;;;;;;;;;;;11.25;57.84082;102645.7;;;;-68
2023/05/20 05:14:06;;;;;;;;;;;;;;;11.34;57.65332;102646.8;;;;-71
2023/05/20 05:19:06;;;;;;;;;;;;;;;11.43;58.22168;102641.9;;;;-67
2023/05/20 05:24:06;;;;;;;;;;;;;;;11.54;59.1084;102642.5;;;;-70
2023/05/20 05:29:06;;;;;;;;;;;;;;;11.83;58.92285;102642;;;;-68
2023/05/20 05:32:21;;;;;;;0.2;0.1;;;;;;;;;;;;;-68
2023/05/20 05:34:06;;;;;;;;;;;;;;;12.32;57.64844;102641.9;;;;-69
2023/05/20 05:39:07;;;;;;;;;;;;;;;12.59;57.70605;102639.5;;;;-68
2023/05/20 05:44:08;;;;;;;;;;;;;;;12.88;57.65332;102641.1;;;;-68
2023/05/20 05:49:06;;;;;;;;;;;;;;;13.07;57.65723;102641;;;;-67
2023/05/20 05:54:06;;;;;;;;;;;;;;;13.19;58.28906;102639.1;;;;-68
2023/05/20 05:59:06;;;;;;;;;;;;;;;13.28;58.12207;102634;;;;-68
2023/05/20 06:02:22;;;;;;;0.2;0.1;;;;;;;;;;;;;-68
2023/05/20 06:04:06;;;;;;;;;;;;;;;13.56;58.23828;102631.7;;;;-68
2023/05/20 06:09:06;;;;;;;;;;;;;;;14.36;57.28613;102626.4;;;;-67
2023/05/20 06:14:06;;;;;;;;;;;;;;;14.77;56.29395;102629.9;;;;-66
2023/05/20 06:19:08;;;;;;;;;;;;;;;15.22;55.82227;102630.4;;;;-68
2023/05/20 06:24:06;;;;;;;;;;;;;;;15.29;55.99902;102630.4;;;;-68
2023/05/20 06:29:07;;;;;;;;;;;;;;;15.35;55.77051;102634.3;;;;-68
2023/05/20 06:32:24;;;;;;;0.2;0;;;;;;;;;;;;;-67
2023/05/20 06:34:06;;;;;;;;;;;;;;;15.96;54.88867;102626.8;;;;-67
2023/05/20 06:39:11;;;;;;;;;;;;;;;16.54;54.16992;102624.4;;;;-69
2023/05/20 06:44:06;;;;;;;;;;;;;;;16.99;53.47754;102626.5;;;;-68
2023/05/20 06:49:06;;;;;;;;;;;;;;;17.51;52.50879;102631.3;;;;-69
2023/05/20 06:54:06;;;;;;;;;;;;;;;17.77;52.59668;102624.7;;;;-68
2023/05/20 06:59:06;;;;;;;;;;;;;;;18.13;51.69824;102623;;;;-68
2023/05/20 07:02:25;;;;;;;0.2;0.1;;;;;;;;;;;;;-69
2023/05/20 07:04:06;;;;;;;;;;;;;;;18.4;50.94531;102611.9;;;;-68
2023/05/20 07:09:06;;;;;;;;;;;;;;;18.68;50.64746;102608.8;;;;-68
2023/05/20 07:14:07;;;;;;;;;;;;;;;19.02;49.78809;102612.1;;;;-70
2023/05/20 07:19:06;;;;;;;;;;;;;;;19.39;49.02051;102610.7;;;;-69
2023/05/20 07:24:06;;;;;;;;;;;;;;;19.47;49.11914;102608.9;;;;-70
2023/05/20 07:29:06;;;;;;;;;;;;;;;19.64;49.08203;102613.9;;;;-69
2023/05/20 07:32:28;;;;;;;0.2;0;;;;;;;;;;;;;-67
2023/05/20 07:34:06;;;;;;;;;;;;;;;19.83;48.64551;102605.9;;;;-69
2023/05/20 07:39:06;;;;;;;;;;;;;;;20.07;47.90723;102605.3;;;;-69
2023/05/20 07:44:10;;;;;;;;;;;;;;;20.02;47.93555;102609.6;;;;-67
2023/05/20 07:49:06;;;;;;;;;;;;;;;19.59;48.58691;102601.4;;;;-68
2023/05/20 07:54:06;;;;;;;;;;;;;;;19.29;49.54297;102604.5;;;;-68
2023/05/20 07:59:06;;;;;;;;;;;;;;;19.42;49.94531;102602.6;;;;-68
2023/05/20 08:02:31;;;;;;;0.2;0.1;;;;;;;;;;;;;-68
2023/05/20 08:04:06;;;;;;;;;;;;;;;19.97;49.02637;102595.9;;;;-68
2023/05/20 08:09:06;;;;;;;;;;;;;;;20.55;48.29102;102592;;;;-70
2023/05/20 08:14:06;;;;;;;;;;;;;;;20.82;47.80469;102597.2;;;;-70
2023/05/20 08:19:06;;;;;;;;;;;;;;;20.92;47.87305;102582.6;;;;-68
2023/05/20 08:24:07;;;;;;;;;;;;;;;21.16;47.21289;102590.4;;;;-68
2023/05/20 08:29:09;;;;;;;;;;;;;;;21.35;47.02539;102582.9;;;;-69
2023/05/20 08:32:34;;;;;;;0.2;0.1;;;;;;;;;;;;;-69
2023/05/20 08:34:06;;;;;;;;;;;;;;;21.51;46.74512;102579.7;;;;-69
2023/05/20 08:39:06;;;;;;;;;;;;;;;21.69;46.66113;102574;;;;-70
2023/05/20 08:44:06;;;;;;;;;;;;;;;21.84;46.30859;102565.7;;;;-69
2023/05/20 08:49:06;;;;;;;;;;;;;;;22.22;45.77441;102558;;;;-68
2023/05/20 08:54:06;;;;;;;;;;;;;;;22.45;45.38574;102557.4;;;;-67
2023/05/20 08:59:06;;;;;;;;;;;;;;;22.69;45.19043;102556.6;;;;-68
2023/05/20 09:02:39;;;;;;;0.2;0.1;;;;;;;;;;;;;-69
2023/05/20 09:04:06;;;;;;;;;;;;;;;22.89;44.77344;102544.8;;;;-68
2023/05/20 09:09:07;;;;;;;;;;;;;;;23.15;44.68457;102551.1;;;;-67
2023/05/20 09:14:06;;;;;;;;;;;;;;;23.44;44.08008;102552.3;;;;-68
2023/05/20 09:19:08;;;;;;;;;;;;;;;22.95;43.76758;102551.2;;;;-71
2023/05/20 09:24:08;;;;;;;;;;;;;;;23.21;41.61621;102534.6;;;;-74
2023/05/20 09:29:07;;;;;;;;;;;;;;;21.23;42.7041;102535.8;;;;-68
2023/05/20 09:32:41;;;;;;;0.2;0.1;;;;;;;;;;;;;-67
2023/05/20 09:34:06;;;;;;;;;;;;;;;23.23;39.70605;102533.3;;;;-67
2023/05/20 09:39:06;;;;;;;;;;;;;;;23.75;40.27051;102527.8;;;;-67
2023/05/20 09:44:06;;;;;;;;;;;;;;;24.09;40.30078;102526.1;;;;-67
2023/05/20 09:49:06;;;;;;;;;;;;;;;24.35;40.34863;102532;;;;-68
2023/05/20 09:54:07;;;;;;;;;;;;;;;24.55;40.41211;102512.1;;;;-69
2023/05/20 09:59:08;;;;;;;;;;;;;;;24.79;40.05176;102513.2;;;;-67
2023/05/20 10:02:45;;;;;;;0.2;0.1;;;;;;;;;;;;;-66
2023/05/20 10:04:07;;;;;;;;;;;;;;;24.96;40.11328;102501.1;;;;-66
2023/05/20 10:09:13;;;;;;;;;;;;;;;25.15;39.91113;102506.1;;;;-67
2023/05/20 10:14:12;;;;;;;;;;;;;;;25.34;39.56836;102494.6;;;;-67
2023/05/20 10:19:10;;;;;;;;;;;;;;;25.49;39.72168;102487.4;;;;-66
2023/05/20 10:24:12;;;;;;;;;;;;;;;25.62;39.11816;102487.6;;;;-67
2023/05/20 10:29:15;;;;;;;;;;;;;;;25.66;38.83105;102482.5;;;;-66
2023/05/20 10:32:51;;;;;;;0.2;0;;;;;;;;;;;;;-67
2023/05/20 10:34:05;;;;;;;;;;;;;;;25.78;39.76953;102476;;;;-68
2023/05/20 10:39:06;;;;;;;;;;;;;;;25.9;39.69922;102469.2;;;;-66
2023/05/20 10:44:06;;;;;;;;;;;;;;;26.08;39.36621;102464.2;;;;-67
2023/05/20 10:49:06;;;;;;;;;;;;;;;26.17;37.63281;102458.3;;;;-68
2023/05/20 10:54:06;;;;;;;;;;;;;;;26.41;38.89648;102456.5;;;;-67
2023/05/20 10:59:06;;;;;;;;;;;;;;;26.49;37.83496;102446.6;;;;-67
2023/05/20 11:02:53;;;;;;;0.2;0;;;;;;;;;;;;;-68
2023/05/20 11:04:07;;;;;;;;;;;;;;;26.64;38.49707;102440.9;;;;-67
2023/05/20 11:09:10;;;;;;;;;;;;;;;26.86;37.5752;102428.7;;;;-69
2023/05/20 11:14:05;;;;;;;;;;;;;;;26.99;38.14355;102434.4;;;;-66
2023/05/20 11:19:06;;;;;;;;;;;;;;;27.15;37.58691;102428.4;;;;-71
2023/05/20 11:24:06;;;;;;;;;;;;;;;27.29;37.0293;102420.7;;;;-72
2023/05/20 11:29:08;;;;;;;;;;;;;;;27.29;37.85547;102419.9;;;;-73
2023/05/20 11:33:08;;;;;;;0.2;0;;;;;;;;;;;;;-71
2023/05/20 11:34:06;;;;;;;;;;;;;;;27.43;36.62109;102413.2;;;;-72
2023/05/20 11:39:06;;;;;;;;;;;;;;;27.51;36.93066;102421.5;;;;-71
2023/05/20 11:44:06;;;;;;;;;;;;;;;27.59;36.97168;102412.8;;;;-71
2023/05/20 11:49:09;;;;;;;;;;;;;;;25.48;33.59766;102405.4;;;;-72
2023/05/20 11:54:07;;;;;;;;;;;;;;;24.06;34.82129;102402.7;;;;-72
2023/05/20 11:59:06;;;;;;;;;;;;;;;23.05;36.39355;102397.8;;;;-72
2023/05/20 12:03:02;;;;;;;0.2;0;;;;;;;;;;;;;-73
2023/05/20 12:04:06;;;;;;;;;;;;;;;22.82;36.14258;102398;;;;-72
2023/05/20 12:09:07;;;;;;;;;;;;;;;23.24;36.17773;102386.3;;;;-73
2023/05/20 12:14:06;;;;;;;;;;;;;;;22.59;36.9082;102393;;;;-67
2023/05/20 12:19:07;;;;;;;;;;;;;;;22.51;36.1875;102384;;;;-69
2023/05/20 12:24:07;;;;;;;;;;;;;;;22.38;37.05176;102373.8;;;;-67
2023/05/20 12:29:06;;;;;;;;;;;;;;;23.32;37.1416;102367.9;;;;-67
2023/05/20 12:33:07;;;;;;;0.2;0.1;;;;;;;;;;;;;-67
2023/05/20 12:34:06;;;;;;;;;;;;;;;23.49;35.4707;102366.5;;;;-66
2023/05/20 12:39:08;;;;;;;;;;;;;;;23.09;35.61133;102358.3;;;;-68
2023/05/20 12:44:06;;;;;;;;;;;;;;;22.74;35.99902;102361.5;;;;-68
2023/05/20 12:49:05;;;;;;;;;;;;;;;22.74;35.84863;102357;;;;-70
2023/05/20 12:54:06;;;;;;;;;;;;;;;22.45;36.43555;102362.3;;;;-68
2023/05/20 12:59:06;;;;;;;;;;;;;;;22.97;35.69434;102357.7;;;;-68
2023/05/20 13:03:10;;;;;;;0.3;0.2;;;;;;;;;;;;;-72
2023/05/20 13:04:05;;;;;;;;;;;;;;;22.73;36.00977;102354.4;;;;-69
2023/05/20 13:09:06;;;;;;;;;;;;;;;22.82;36.24707;102350.7;;;;-68
2023/05/20 13:14:06;;;;;;;;;;;;;;;22.5;36.50879;102349.5;;;;-68
2023/05/20 13:19:05;;;;;;;;;;;;;;;22.37;35.75098;102336;;;;-67
2023/05/20 13:24:09;;;;;;;;;;;;;;;22.28;35.80078;102338.7;;;;-68
2023/05/20 13:29:05;;;;;;;;;;;;;;;21.65;36.94531;102338.5;;;;-67
2023/05/20 13:33:14;;;;;;;0.2;0;;;;;;;;;;;;;-67
2023/05/20 13:34:05;;;;;;;;;;;;;;;22.14;36.08887;102343.3;;;;-68
2023/05/20 13:39:06;;;;;;;;;;;;;;;22.07;36.19727;102331.3;;;;-68
2023/05/20 13:44:06;;;;;;;;;;;;;;;22.08;36.02539;102324.5;;;;-67
2023/05/20 13:49:05;;;;;;;;;;;;;;;23.29;35.39648;102326.8;;;;-66
2023/05/20 13:54:06;;;;;;;;;;;;;;;23.95;34.69727;102320.7;;;;-67
2023/05/20 13:59:06;;;;;;;;;;;;;;;24.2;34.88965;102305.6;;;;-66
2023/05/20 14:03:18;;;;;;;0.2;0;;;;;;;;;;;;;-68
2023/05/20 14:04:06;;;;;;;;;;;;;;;24.32;35.18945;102312.5;;;;-68
2023/05/20 14:09:06;;;;;;;;;;;;;;;24.43;35.27832;102306.2;;;;-67
2023/05/20 14:14:06;;;;;;;;;;;;;;;24.49;35.46777;102301.3;;;;-68
2023/05/20 14:19:05;;;;;;;;;;;;;;;24.51;35.81641;102297.5;;;;-66
2023/05/20 14:24:06;;;;;;;;;;;;;;;24.46;36.26465;102294.3;;;;-69
2023/05/20 14:29:05;;;;;;;;;;;;;;;24.43;36.84082;102288.7;;;;-66
2023/05/20 14:33:22;;;;;;;0.3;0.1;;;;;;;;;;;;;-69
2023/05/20 14:34:05;;;;;;;;;;;;;;;24.34;37.07617;102285.4;;;;-66
2023/05/20 14:39:06;;;;;;;;;;;;;;;24.28;37.60254;102272.2;;;;-66
2023/05/20 14:44:05;;;;;;;;;;;;;;;24.21;37.74707;102278;;;;-69
2023/05/20 14:49:05;;;;;;;;;;;;;;;24.17;37.94043;102268.2;;;;-67
2023/05/20 14:54:07;;;;;;;;;;;;;;;24.14;38.26074;102257.2;;;;-68
2023/05/20 14:59:05;;;;;;;;;;;;;;;24.05;38.65723;102258.3;;;;-65
2023/05/20 15:03:26;;;;;;;0.2;0.1;;;;;;;;;;;;;-67
2023/05/20 15:04:06;;;;;;;;;;;;;;;23.94;39.10938;102264.1;;;;-67
2023/05/20 15:09:06;;;;;;;;;;;;;;;23.86;39.65723;102254.8;;;;-70
2023/05/20 15:14:05;;;;;;;;;;;;;;;23.89;39.20996;102248;;;;-66
2023/05/20 15:19:05;;;;;;;;;;;;;;;23.86;39.57715;102238.6;;;;-68
2023/05/20 15:24:06;;;;;;;;;;;;;;;23.77;39.85742;102238.3;;;;-67
2023/05/20 15:29:05;;;;;;;;;;;;;;;23.79;40.13672;102237.3;;;;-68
2023/05/20 15:33:30;;;;;;;0.2;0.1;;;;;;;;;;;;;-66
2023/05/20 15:34:05;;;;;;;;;;;;;;;23.86;40.14258;102238;;;;-69
2023/05/20 15:39:06;;;;;;;;;;;;;;;23.96;40.20898;102230.4;;;;-66
2023/05/20 15:44:06;;;;;;;;;;;;;;;24.15;40.26172;102230.4;;;;-67
2023/05/20 15:49:06;;;;;;;;;;;;;;;24.12;40.25781;102222.3;;;;-66
2023/05/20 15:54:05;;;;;;;;;;;;;;;24.09;40.48633;102222.2;;;;-70
2023/05/20 15:59:05;;;;;;;;;;;;;;;23.8;40.4707;102214.9;;;;-69
2023/05/20 16:03:34;;;;;;;0.2;0;;;;;;;;;;;;;-70
2023/05/20 16:04:05;;;;;;;;;;;;;;;23.7;41.18945;102213.9;;;;-68
2023/05/20 16:09:06;;;;;;;;;;;;;;;23.55;41.36035;102201.7;;;;-72
2023/05/20 16:14:06;;;;;;;;;;;;;;;23.45;41.44336;102202.9;;;;-69
2023/05/20 16:19:06;;;;;;;;;;;;;;;23.4;41.76074;102212;;;;-69
2023/05/20 16:24:06;;;;;;;;;;;;;;;23.3;41.99414;102202.2;;;;-69
2023/05/20 16:29:06;;;;;;;;;;;;;;;23.19;42.15527;102196.4;;;;-68
2023/05/20 16:33:38;;;;;;;0.3;0.1;;;;;;;;;;;;;-68
2023/05/20 16:34:06;;;;;;;;;;;;;;;23.07;42.3291;102200.3;;;;-69
2023/05/20 16:39:05;;;;;;;;;;;;;;;22.97;42.50391;102196.6;;;;-69
2023/05/20 16:44:05;;;;;;;;;;;;;;;22.86;42.76953;102198.8;;;;-71
2023/05/20 16:49:07;;;;;;;;;;;;;;;22.71;42.81152;102196.9;;;;-69
2023/05/20 16:54:06;;;;;;;;;;;;;;;22.59;42.89258;102196;;;;-74
2023/05/20 16:59:06;;;;;;;;;;;;;;;22.45;43.0752;102197.5;;;;-74
2023/05/20 17:03:42;;;;;;;0.7;0.2;;;;;;;;;;;;;-73
2023/05/20 17:04:05;;;;;;;;;;;;;;;22.35;43.25977;102206.5;;;;-74
2023/05/20 17:09:06;;;;;;;;;;;;;;;22.25;43.22754;102201.2;;;;-73
2023/05/20 17:14:06;;;;;;;;;;;;;;;22.06;43.7832;102196.7;;;;-74
2023/05/20 17:19:05;;;;;;;;;;;;;;;21.96;43.99316;102189;;;;-75
2023/05/20 17:24:06;;;;;;;;;;;;;;;21.88;44.13281;102183.6;;;;-75
2023/05/20 17:29:06;;;;;;;;;;;;;;;21.81;44.34473;102186.2;;;;-74
2023/05/20 17:33:47;;;;;;;0.4;0.2;;;;;;;;;;;;;-73
2023/05/20 17:34:05;;;;;;;;;;;;;;;21.75;44.05273;102192.2;;;;-74
2023/05/20 17:39:08;;;;;;;;;;;;;;;21.74;44.13086;102199.6;;;;-68
2023/05/20 17:44:08;;;;;;;;;;;;;;;21.62;44.58984;102195.2;;;;-71
2023/05/20 17:49:05;;;;;;;;;;;;;;;21.53;45.00391;102203.5;;;;-68
2023/05/20 17:54:06;;;;;;;;;;;;;;;21.44;45.3623;102211.9;;;;-69
2023/05/20 17:59:05;;;;;;;;;;;;;;;21.34;45.68457;102205.4;;;;-70
2023/05/20 18:03:49;;;;;;;0.2;0.1;;;;;;;;;;;;;-69
2023/05/20 18:04:06;;;;;;;;;;;;;;;21.26;45.24023;102210.5;;;;-69
2023/05/20 18:09:06;;;;;;;;;;;;;;;21.14;45.5498;102207.5;;;;-69
2023/05/20 18:14:06;;;;;;;;;;;;;;;21.03;46.43164;102212.6;;;;-71
2023/05/20 18:19:05;;;;;;;;;;;;;;;20.91;46.09863;102217;;;;-72
2023/05/20 18:24:07;;;;;;;;;;;;;;;20.81;46.4873;102219.5;;;;-70
2023/05/20 18:29:06;;;;;;;;;;;;;;;20.7;46.25879;102216.5;;;;-69
2023/05/20 18:33:55;;;;;;;1;0.3;;;;;;;;;;;;;-71
2023/05/20 18:34:05;;;;;;;;;;;;;;;20.57;46.48633;102222.3;;;;-70
2023/05/20 18:39:06;;;;;;;;;;;;;;;20.45;45.90234;102221;;;;-69
2023/05/20 18:44:07;;;;;;;;;;;;;;;20.28;47.44922;102227;;;;-70
2023/05/20 18:49:05;;;;;;;;;;;;;;;20.11;47.2959;102229.5;;;;-69
2023/05/20 18:54:05;;;;;;;;;;;;;;;19.94;47.20801;102231.8;;;;-70
2023/05/20 18:59:05;;;;;;;;;;;;;;;19.79;46.58691;102229.5;;;;-70
2023/05/20 19:03:55;;;;;;;0.2;0.1;;;;;;;;;;;;;-69
2023/05/20 19:04:05;;;;;;;;;;;;;;;19.61;46.7627;102233.1;;;;-69
2023/05/20 19:09:06;;;;;;;;;;;;;;;19.44;46.62012;102229.8;;;;-69
2023/05/20 19:14:06;;;;;;;;;;;;;;;19.29;46.60449;102230.7;;;;-69
2023/05/20 19:19:05;;;;;;;;;;;;;;;19.16;47.31934;102230.5;;;;-71
2023/05/20 19:24:05;;;;;;;;;;;;;;;19.03;46.73535;102231.8;;;;-70
2023/05/20 19:29:05;;;;;;;;;;;;;;;18.88;47.3125;102232.8;;;;-69
2023/05/20 19:33:58;;;;;;;0.2;0.1;;;;;;;;;;;;;-68
2023/05/20 19:34:08;;;;;;;;;;;;;;;18.7;47.15625;102229.3;;;;-69
2023/05/20 19:39:06;;;;;;;;;;;;;;;18.53;47.53613;102222.9;;;;-69
2023/05/20 19:44:05;;;;;;;;;;;;;;;18.37;47.77051;102217.4;;;;-70
2023/05/20 19:49:05;;;;;;;;;;;;;;;18.21;47.67383;102209;;;;-68
2023/05/20 19:54:05;;;;;;;;;;;;;;;18.05;47.98535;102207.2;;;;-69
2023/05/20 19:59:06;;;;;;;;;;;;;;;17.91;47.99219;102222;;;;-69
2023/05/20 20:04:01;;;;;;;0.4;0.2;;;;;;;;;;;;;-68
2023/05/20 20:04:11;;;;;;;;;;;;;;;17.72;48.43848;102228.2;;;;-72
2023/05/20 20:09:05;;;;;;;;;;;;;;;17.6;48.52637;102231.9;;;;-70
2023/05/20 20:14:05;;;;;;;;;;;;;;;17.46;48.86328;102229.9;;;;-69
2023/05/20 20:19:05;;;;;;;;;;;;;;;17.33;49.15527;102227;;;;-68
2023/05/20 20:24:05;;;;;;;;;;;;;;;17.19;49.33203;102223.5;;;;-69
2023/05/20 20:29:05;;;;;;;;;;;;;;;17.08;49.875;102220.7;;;;-70
2023/05/20 20:34:04;;;;;;;0.2;0.1;;;;;;;;;;;;;-68
2023/05/20 20:34:14;;;;;;;;;;;;;;;16.94;50.01855;102226.5;;;;-72
2023/05/20 20:39:07;;;;;;;;;;;;;;;16.83;50.92383;102221.6;;;;-71
2023/05/20 20:44:07;;;;;;;;;;;;;;;16.7;50.45508;102221.7;;;;-67
2023/05/20 20:49:05;;;;;;;;;;;;;;;16.6;50.65918;102221.8;;;;-69
2023/05/20 20:54:06;;;;;;;;;;;;;;;16.47;51.0957;102219.3;;;;-68
2023/05/20 20:59:09;;;;;;;;;;;;;;;16.35;51.60449;102223;;;;-71
2023/05/20 21:04:07;;;;;;;;;;;;;;;16.27;51.15234;102227.5;;;;-70
2023/05/20 21:04:17;;;;;;;0.2;0;;;;;;;;;;;;;-70
2023/05/20 21:09:06;;;;;;;;;;;;;;;16.15;51.5459;102225.6;;;;-71
2023/05/20 21:14:05;;;;;;;;;;;;;;;16.05;51.83789;102222.4;;;;-70
2023/05/20 21:19:06;;;;;;;;;;;;;;;15.95;51.72559;102224.8;;;;-69
2023/05/20 21:24:07;;;;;;;;;;;;;;;15.82;52.46777;102224.8;;;;-68
2023/05/20 21:29:06;;;;;;;;;;;;;;;15.7;52.44141;102219.8;;;;-68
2023/05/20 21:34:05;;;;;;;;;;;;;;;15.65;52.05176;102221.2;;;;-68
2023/05/20 21:34:15;;;;;;;0.2;0.1;;;;;;;;;;;;;-68
2023/05/20 21:39:06;;;;;;;;;;;;;;;15.52;52.36426;102213.6;;;;-69
2023/05/20 21:44:06;;;;;;;;;;;;;;;15.4;52.48535;102215.4;;;;-69
2023/05/20 21:49:05;;;;;;;;;;;;;;;15.31;52.56445;102214.1;;;;-69
2023/05/20 21:54:06;;;;;;;;;;;;;;;15.21;52.8457;102208.4;;;;-69
2023/05/20 21:59:05;;;;;;;;;;;;;;;15.16;52.84082;102205.6;;;;-69
2023/05/20 22:04:06;;;;;;;;;;;;;;;15.09;52.71875;102200.8;;;;-68
2023/05/20 22:04:16;;;;;;;0.5;0.2;;;;;;;;;;;;;-68
2023/05/20 22:09:06;;;;;;;;;;;;;;;14.99;52.86523;102191.9;;;;-68
2023/05/20 22:14:05;;;;;;;;;;;;;;;14.93;53.21777;102189.2;;;;-68
2023/05/20 22:19:06;;;;;;;;;;;;;;;14.86;53.21973;102177.6;;;;-68
2023/05/20 22:24:05;;;;;;;;;;;;;;;14.78;53.71777;102180;;;;-68
2023/05/20 22:29:06;;;;;;;;;;;;;;;14.72;53.29395;102171.9;;;;-68
2023/05/20 22:34:05;;;;;;;;;;;;;;;14.69;53.78613;102164.4;;;;-70
2023/05/20 22:34:15;;;;;;;0.2;0.1;;;;;;;;;;;;;-70
2023/05/20 22:39:06;;;;;;;;;;;;;;;14.6;53.7959;102162.2;;;;-68
2023/05/20 22:44:06;;;;;;;;;;;;;;;14.55;54.26367;102154.4;;;;-69
2023/05/20 22:49:05;;;;;;;;;;;;;;;14.47;54.4668;102152.3;;;;-71
2023/05/20 22:54:05;;;;;;;;;;;;;;;14.41;53.98828;102147.6;;;;-69
2023/05/20 22:59:06;;;;;;;;;;;;;;;14.37;54.56641;102148.7;;;;-68
2023/05/20 23:04:05;;;;;;;;;;;;;;;14.35;54.62109;102145.9;;;;-69
2023/05/20 23:04:15;;;;;;;0.2;0.1;;;;;;;;;;;;;-69
2023/05/20 23:09:07;;;;;;;;;;;;;;;14.33;54.31641;102145.3;;;;-69
2023/05/20 23:14:05;;;;;;;;;;;;;;;14.31;54.97656;102146.5;;;;-68
2023/05/20 23:19:05;;;;;;;;;;;;;;;14.32;55;102142.2;;;;-69
2023/05/20 23:24:06;;;;;;;;;;;;;;;14.32;54.84277;102140.5;;;;-69
2023/05/20 23:29:07;;;;;;;;;;;;;;;14.32;55.02246;102139.5;;;;-69
2023/05/20 23:34:06;;;;;;;;;;;;;;;14.39;54.90625;102136.6;;;;-68
2023/05/20 23:34:17;;;;;;;0.2;0.1;;;;;;;;;;;;;-71
2023/05/20 23:39:06;;;;;;;;;;;;;;;14.38;55.32227;102133.5;;;;-68
2023/05/20 23:44:06;;;;;;;;;;;;;;;14.4;55.07617;102124.5;;;;-70
2023/05/20 23:49:05;;;;;;;;;;;;;;;14.41;54.91016;102125.8;;;;-68
2023/05/20 23:54:06;;;;;;;;;;;;;;;14.42;54.97852;102123.3;;;;-69
2023/05/20 23:59:06;;;;;;;;;;;;;;;14.43;54.67578;102123.8;;;;-68
